메인 페이지
METAR-TAF:

METAR-TAF

공항 :

페어뱅크스, 알래스카, 미국

위도: 64-48-14N, 경도: 147-52-34W, 고도: 132m

현재 날씨관측

예보는 44분 전, 07:53시(UTC)에 발표되었습니다.
4kt
온도 14°C
습도 82%
기압 1023 hPa
시정: 16.1km
고도 7000ft 상공 구름 많음
고도 9000ft 상공 흐림
약한비

METAR: PAFA 200753Z 35004KT 10SM -RA BKN070 OVC090 14/11 A3020 RMK AO2 SLP230 P0001 T01390106

시각: 00:37 (08:37 UTC)

예보

예보는 3 시간 15분 전, 05:22시(UTC)에 발표되었습니다.
예보 대상 시간: 20일 06시부터 21일 12시까지 (UTC)
7kt
시정: 10km
고도 8000ft 상공 구름 많음
고도 11000ft 상공 구름 많음
고도 18000ft 상공 구름 많음
시계 내 소나기
20일 1300시부터 (UTC)
2kt
시정: 10km
고도 5000ft 상공 구름 많음
20일 2100시부터 (UTC)
10kt, 순간 최대 풍속 20kt
시정: 10km
고도 10000ft 상공 구름 많음
21일 0500시부터 (UTC)
북서5kt
시정: 10km
고도 25000ft 상공 구름 많음

TAF: PAFA 200522Z 2006/2112 27007KT P6SM VCSH BKN080 BKN110 BKN180 FM201300 36002KT P6SM BKN050 FM202100 28010G20KT P6SM BKN100 FM210500 31005KT P6SM BKN250

4,000개 이상의 공항 관측 자료 및 예보 (METAR 및 TAF 보고).

지도상에서 검색 가능한 기상관측소가 노란 점과 빨간 점으로 표시되어 있습니다.

기상관측소 명을 보려면 표시 위로 마우스를 이동하세요.

날씨 관측과 예보를 보려면 클릭하세요.

지도 변경 : 확대하려면 엑스 표시가 있는 녹색 버튼, 축소하려면 빼기 표시가 있는 녹색 버튼, 다음 페이지의 지도를 보려면 녹색 화살표를 클릭하세요.


METAR-TAF: